createdAt,value
2017-12-23T00:00:05.732Z,42.54
2017-12-23T00:01:06.406Z,42.55
2017-12-23T00:02:06.677Z,42.57
2017-12-23T00:03:07.200Z,42.56
2017-12-23T00:04:07.621Z,42.58
2017-12-23T00:05:08.092Z,42.57
2017-12-23T00:06:08.567Z,42.56
2017-12-23T00:07:09.037Z,42.57
2017-12-23T00:08:09.516Z,42.56
2017-12-23T00:09:09.982Z,42.57
2017-12-23T00:10:10.454Z,42.60
2017-12-23T00:11:10.930Z,42.60
2017-12-23T00:12:11.400Z,42.61
2017-12-23T00:13:11.872Z,42.62
2017-12-23T00:14:12.344Z,42.61
2017-12-23T00:15:12.819Z,42.63
2017-12-23T00:16:13.291Z,42.63
2017-12-23T00:17:13.746Z,42.65
2017-12-23T00:18:14.211Z,42.65
2017-12-23T00:19:14.684Z,42.66
2017-12-23T00:20:15.155Z,42.67
2017-12-23T00:21:15.629Z,42.69
2017-12-23T00:22:16.101Z,42.71
2017-12-23T00:23:16.777Z,42.72
2017-12-23T00:24:17.047Z,42.74
2017-12-23T00:25:17.519Z,42.75
2017-12-23T00:26:17.992Z,42.74
2017-12-23T00:27:18.464Z,42.78
2017-12-23T00:28:18.988Z,42.77
2017-12-23T00:29:19.410Z,42.78
2017-12-23T00:30:19.882Z,42.79
2017-12-23T00:31:20.356Z,42.80
2017-12-23T00:32:20.835Z,42.82
2017-12-23T00:33:21.303Z,42.82
2017-12-23T00:34:21.774Z,42.81
2017-12-23T00:35:22.248Z,42.80
2017-12-23T00:36:22.720Z,42.83
2017-12-23T00:37:23.192Z,42.86
2017-12-23T00:38:23.664Z,42.85
2017-12-23T00:39:24.138Z,42.85
2017-12-23T00:40:24.611Z,42.87
2017-12-23T00:41:25.083Z,42.86
2017-12-23T00:42:25.557Z,42.86
2017-12-23T00:43:26.029Z,42.89
2017-12-23T00:44:26.501Z,42.92
2017-12-23T00:45:26.977Z,42.92
2017-12-23T00:46:27.447Z,42.92
2017-12-23T00:47:27.926Z,42.89
2017-12-23T00:48:28.394Z,42.92
2017-12-23T00:49:28.867Z,42.94
2017-12-23T00:50:29.338Z,42.94
2017-12-23T00:51:29.816Z,42.90
2017-12-23T00:52:30.284Z,42.89
2017-12-23T00:53:30.757Z,42.92
2017-12-23T00:54:31.229Z,42.95
2017-12-23T00:55:31.701Z,42.91
2017-12-23T00:56:32.175Z,42.93
2017-12-23T00:57:32.650Z,42.93
2017-12-23T00:58:33.120Z,42.93
2017-12-23T00:59:33.595Z,42.93
2017-12-23T01:00:34.067Z,42.94
2017-12-23T01:01:34.542Z,42.94
2017-12-23T01:02:35.015Z,42.92
2017-12-23T01:03:35.486Z,42.91
2017-12-23T01:04:35.958Z,42.90
2017-12-23T01:05:36.433Z,42.90
2017-12-23T01:06:36.907Z,42.92
2017-12-23T01:07:37.381Z,42.92
2017-12-23T01:08:37.851Z,42.93
2017-12-23T01:09:38.321Z,42.95
2017-12-23T01:10:38.794Z,42.94
2017-12-23T01:11:39.270Z,42.95
2017-12-23T01:12:39.744Z,42.97
2017-12-23T01:13:40.264Z,42.96
2017-12-23T01:14:40.685Z,42.97
2017-12-23T01:15:41.158Z,42.99
2017-12-23T01:16:41.633Z,43.01
2017-12-23T01:17:42.111Z,43.03
2017-12-23T01:18:42.576Z,43.03
2017-12-23T01:19:43.055Z,43.08
2017-12-23T01:20:43.523Z,43.07
2017-12-23T01:21:43.996Z,43.08
2017-12-23T01:22:44.469Z,43.07
2017-12-23T01:23:44.941Z,43.06
2017-12-23T01:24:45.417Z,43.06
2017-12-23T01:25:45.887Z,43.11
2017-12-23T01:26:46.361Z,43.17
2017-12-23T01:27:46.831Z,43.13
2017-12-23T01:28:47.306Z,43.15
2017-12-23T01:29:47.778Z,43.16
2017-12-23T01:30:48.252Z,43.17
2017-12-23T01:31:49.066Z,43.20
2017-12-23T01:32:49.196Z,43.21
2017-12-23T01:33:49.670Z,43.22
2017-12-23T01:34:50.141Z,43.22
2017-12-23T01:35:50.616Z,43.26
2017-12-23T01:36:51.088Z,43.21
2017-12-23T01:37:51.562Z,43.20
2017-12-23T01:38:52.373Z,43.22
2017-12-23T01:39:52.512Z,43.29
2017-12-23T01:40:52.980Z,43.29
2017-12-23T01:41:53.450Z,43.28
2017-12-23T01:42:53.923Z,43.30
2017-12-23T01:43:54.394Z,43.35
2017-12-23T01:44:54.867Z,43.38
2017-12-23T01:45:55.342Z,43.38
2017-12-23T01:46:55.812Z,43.38
2017-12-23T01:47:56.284Z,43.36
2017-12-23T01:48:57.101Z,43.39
2017-12-23T01:49:57.572Z,43.43
2017-12-23T01:50:57.701Z,43.43
2017-12-23T01:51:58.175Z,43.42
2017-12-23T01:52:58.648Z,43.39
2017-12-23T01:53:59.173Z,43.40
2017-12-23T01:54:59.593Z,43.38
2017-12-23T01:56:00.105Z,43.35
2017-12-23T01:57:00.538Z,43.34
2017-12-23T01:58:01.060Z,43.36
2017-12-23T01:59:01.481Z,43.42
2017-12-23T02:00:01.955Z,43.44
2017-12-23T02:01:02.429Z,43.43
2017-12-23T02:02:02.900Z,43.45
2017-12-23T02:03:03.713Z,43.42
2017-12-23T02:04:03.844Z,43.50
2017-12-23T02:05:04.320Z,43.50
2017-12-23T02:06:04.790Z,43.52
2017-12-23T02:07:05.266Z,43.51
2017-12-23T02:08:05.733Z,43.47
2017-12-23T02:09:06.207Z,43.47
2017-12-23T02:10:06.679Z,43.47
2017-12-23T02:11:07.150Z,43.44
2017-12-23T02:12:07.622Z,43.48
2017-12-23T02:13:08.095Z,43.52
2017-12-23T02:14:08.618Z,43.54
2017-12-23T02:15:09.039Z,43.54
2017-12-23T02:16:09.512Z,43.48
2017-12-23T02:17:09.985Z,43.45
2017-12-23T02:18:10.458Z,43.43
2017-12-23T02:19:10.927Z,43.41
2017-12-23T02:20:11.401Z,43.39
2017-12-23T02:21:11.874Z,43.42
2017-12-23T02:22:12.346Z,43.42
2017-12-23T02:23:12.818Z,43.41
2017-12-23T02:24:13.491Z,43.39
2017-12-23T02:25:13.968Z,43.38
2017-12-23T02:26:14.235Z,43.36
2017-12-23T02:27:14.705Z,43.36
2017-12-23T02:28:15.177Z,43.33
2017-12-23T02:29:15.650Z,43.28
2017-12-23T02:30:16.122Z,43.23
2017-12-23T02:31:16.594Z,43.20
2017-12-23T02:32:17.068Z,43.21
2017-12-23T02:33:17.539Z,43.19
2017-12-23T02:34:18.012Z,43.17
2017-12-23T02:35:18.483Z,43.13
2017-12-23T02:36:18.958Z,43.15
2017-12-23T02:37:19.429Z,43.16
2017-12-23T02:38:19.901Z,43.16
2017-12-23T02:39:20.373Z,43.16
2017-12-23T02:40:20.845Z,43.16
2017-12-23T02:41:21.318Z,43.19
2017-12-23T02:42:21.792Z,43.16
2017-12-23T02:43:22.261Z,43.16
2017-12-23T02:44:22.784Z,43.15
2017-12-23T02:45:23.208Z,43.14
2017-12-23T02:46:23.680Z,43.14
2017-12-23T02:47:24.149Z,43.17
2017-12-23T02:48:24.622Z,43.16
2017-12-23T02:49:25.095Z,43.15
2017-12-23T02:50:25.571Z,43.14
2017-12-23T02:51:26.040Z,43.16
2017-12-23T02:52:26.512Z,43.16
2017-12-23T02:53:26.986Z,43.13
2017-12-23T02:54:27.456Z,43.10
2017-12-23T02:55:27.928Z,43.13
2017-12-23T02:56:28.399Z,43.14
2017-12-23T02:57:28.875Z,43.14
2017-12-23T02:58:29.348Z,43.13
2017-12-23T02:59:29.868Z,43.13
2017-12-23T03:00:30.290Z,43.16
2017-12-23T03:01:30.774Z,43.16
2017-12-23T03:03:31.719Z,43.14
2017-12-23T03:04:32.188Z,43.14
2017-12-23T03:05:32.665Z,43.10
2017-12-23T03:06:33.137Z,43.09
2017-12-23T03:07:33.609Z,43.07
2017-12-23T03:08:34.068Z,43.05
2017-12-23T03:09:46.531Z,43.08
2017-12-23T03:10:35.025Z,43.07
2017-12-23T03:11:35.497Z,43.05
2017-12-23T03:13:36.441Z,42.97
2017-12-23T03:14:36.966Z,43.00
2017-12-23T03:17:38.330Z,43.01
2017-12-23T03:18:38.837Z,43.01
2017-12-23T03:19:39.275Z,43.01
2017-12-23T03:20:39.732Z,43.02
2017-12-23T03:21:40.251Z,43.02
2017-12-23T03:22:40.689Z,43.01
2017-12-23T03:23:41.147Z,43.01
2017-12-23T03:24:41.638Z,43.07
2017-12-23T03:25:42.107Z,43.00
2017-12-23T03:26:42.577Z,42.98
2017-12-23T03:27:43.050Z,42.96
2017-12-23T03:29:43.994Z,43.04
2017-12-23T03:30:44.454Z,43.07
2017-12-23T03:31:44.937Z,43.04
2017-12-23T03:33:45.883Z,43.03
2017-12-23T03:34:46.545Z,43.04
2017-12-23T03:36:47.286Z,43.06
2017-12-23T03:37:47.756Z,43.08
2017-12-23T03:39:48.764Z,43.06
2017-12-23T03:40:49.187Z,43.05
2017-12-23T03:42:50.131Z,43.02
2017-12-23T03:43:50.601Z,43.06
2017-12-23T03:44:51.075Z,43.08
2017-12-23T03:45:51.547Z,43.06
2017-12-23T03:46:52.012Z,43.00
2017-12-23T03:47:52.491Z,43.00
2017-12-23T03:48:52.963Z,43.00
2017-12-23T03:49:53.486Z,43.01
2017-12-23T03:50:53.895Z,43.04
2017-12-23T03:51:54.378Z,43.10
2017-12-23T03:52:54.851Z,43.12
2017-12-23T03:53:55.320Z,43.09
2017-12-23T03:54:55.797Z,43.06
2017-12-23T03:55:56.266Z,43.07
2017-12-23T03:56:56.737Z,43.08
2017-12-23T03:57:57.196Z,43.07
2017-12-23T03:58:57.684Z,43.09
2017-12-23T03:59:58.490Z,43.10
2017-12-23T04:00:58.624Z,43.12
2017-12-23T04:01:59.106Z,43.11
2017-12-23T04:02:59.556Z,43.11
2017-12-23T04:04:00.056Z,43.12
2017-12-23T04:05:00.512Z,43.12
2017-12-23T04:06:00.991Z,43.06
2017-12-23T04:07:01.461Z,43.00
2017-12-23T04:08:01.928Z,42.97
2017-12-23T04:09:02.400Z,42.94
2017-12-23T04:10:02.874Z,42.90
2017-12-23T04:11:03.354Z,42.90
2017-12-23T04:13:04.274Z,42.88
2017-12-23T04:14:04.761Z,42.87
2017-12-23T04:15:05.282Z,42.88
2017-12-23T04:16:05.703Z,42.83
2017-12-23T04:17:06.172Z,42.78
2017-12-23T04:18:06.637Z,42.79
2017-12-23T04:19:07.136Z,42.79
2017-12-23T04:21:08.063Z,42.74
2017-12-23T04:22:08.539Z,42.70
2017-12-23T04:23:09.010Z,42.68
2017-12-23T04:24:09.478Z,42.68
2017-12-23T04:25:09.952Z,42.65
2017-12-23T04:26:10.423Z,42.65
2017-12-23T04:27:10.895Z,42.66
2017-12-23T04:28:11.352Z,42.65
2017-12-23T04:29:11.836Z,42.64
2017-12-23T04:30:12.310Z,42.63
2017-12-23T04:32:13.238Z,42.57
2017-12-23T04:33:13.724Z,42.54
2017-12-23T04:34:14.196Z,42.52
2017-12-23T04:35:14.670Z,42.50
2017-12-23T04:37:15.610Z,42.50
2017-12-23T04:38:16.081Z,42.49
2017-12-23T04:39:16.556Z,42.49
2017-12-23T04:40:17.077Z,42.46
2017-12-23T04:41:17.483Z,42.46
2017-12-23T04:42:17.968Z,42.42
2017-12-23T04:43:18.441Z,42.45
2017-12-23T04:44:18.912Z,42.46
2017-12-23T04:46:19.857Z,42.49
2017-12-23T04:48:20.797Z,42.47
2017-12-23T04:49:21.269Z,42.49
2017-12-23T04:51:22.215Z,42.50
2017-12-23T04:53:23.154Z,42.54
2017-12-23T04:54:23.630Z,42.55
2017-12-23T04:56:24.570Z,42.64
2017-12-23T04:57:25.044Z,42.66
2017-12-23T04:58:25.514Z,42.74
2017-12-23T04:59:25.989Z,42.77
2017-12-23T05:00:26.443Z,42.78
2017-12-23T05:01:26.928Z,42.79
2017-12-23T05:02:27.398Z,42.80
2017-12-23T05:03:27.868Z,42.82
2017-12-23T05:04:28.341Z,42.80
2017-12-23T05:05:28.814Z,42.76
2017-12-23T05:06:29.286Z,42.77
2017-12-23T05:07:29.756Z,42.76
2017-12-23T05:08:30.230Z,42.78
2017-12-23T05:09:30.699Z,42.78
2017-12-23T05:10:31.157Z,42.81
2017-12-23T05:11:31.692Z,42.79
2017-12-23T05:12:32.114Z,42.79
2017-12-23T05:13:32.584Z,42.78
2017-12-23T05:14:33.055Z,42.78
2017-12-23T05:15:33.528Z,42.78
2017-12-23T05:16:33.997Z,42.78
2017-12-23T05:17:34.456Z,42.72
2017-12-23T05:18:34.940Z,42.69
2017-12-23T05:19:35.413Z,42.68
2017-12-23T05:20:35.883Z,42.67
2017-12-23T05:21:48.636Z,42.67
2017-12-23T05:22:36.828Z,42.67
2017-12-23T05:24:37.770Z,42.72
2017-12-23T05:25:38.241Z,42.71
2017-12-23T05:26:38.714Z,42.74
2017-12-23T05:27:39.171Z,42.81
2017-12-23T05:28:39.657Z,42.88
2017-12-23T05:29:40.126Z,42.87
2017-12-23T05:30:40.599Z,42.89
2017-12-23T05:32:41.529Z,42.94
2017-12-23T05:33:42.013Z,42.96
2017-12-23T05:34:42.470Z,42.96
2017-12-23T05:35:42.956Z,42.96
2017-12-23T05:36:43.478Z,42.96
2017-12-23T05:37:43.898Z,43.01
2017-12-23T05:38:44.368Z,43.01
2017-12-23T05:39:44.844Z,43.03
2017-12-23T05:40:45.314Z,43.05
2017-12-23T05:41:45.775Z,43.06
2017-12-23T05:43:46.728Z,43.03
2017-12-23T05:44:47.198Z,42.99
2017-12-23T05:45:47.656Z,43.01
2017-12-23T05:46:48.192Z,43.01
2017-12-23T05:47:48.618Z,43.01
2017-12-23T05:48:49.084Z,43.03
2017-12-23T05:50:50.017Z,43.05
2017-12-23T05:51:50.499Z,43.04
2017-12-23T05:52:50.969Z,43.04
2017-12-23T05:53:51.442Z,43.05
2017-12-23T05:54:51.913Z,43.05
2017-12-23T05:55:52.386Z,43.03
2017-12-23T05:56:52.907Z,43.01
2017-12-23T05:57:53.315Z,42.99
2017-12-23T05:58:53.800Z,43.00
2017-12-23T05:59:54.272Z,42.99
2017-12-23T06:00:54.744Z,43.01
2017-12-23T06:03:56.161Z,42.96
2017-12-23T06:04:56.628Z,42.98
2017-12-23T06:05:57.086Z,43.00
2017-12-23T06:06:57.622Z,43.02
2017-12-23T06:08:58.515Z,43.09
2017-12-23T06:09:58.985Z,43.08
2017-12-23T06:10:59.458Z,43.06
2017-12-23T06:11:59.916Z,43.06
2017-12-23T06:13:00.400Z,43.05
2017-12-23T06:14:00.873Z,43.03
2017-12-23T06:15:01.348Z,43.01
2017-12-23T06:16:01.823Z,43.04
2017-12-23T06:17:02.338Z,43.00
2017-12-23T06:18:02.744Z,43.00
2017-12-23T06:19:03.230Z,42.98
2017-12-23T06:20:03.705Z,42.94
2017-12-23T06:22:04.696Z,42.92
2017-12-23T06:23:05.116Z,42.94
2017-12-23T06:25:06.059Z,42.99
2017-12-23T06:26:06.536Z,42.99
2017-12-23T06:27:07.002Z,43.00
2017-12-23T06:28:07.474Z,43.01
2017-12-23T06:29:07.932Z,43.01
2017-12-23T06:30:08.417Z,43.02
2017-12-23T06:31:08.888Z,43.03
2017-12-23T06:33:09.832Z,43.00
2017-12-23T06:34:10.303Z,42.96
2017-12-23T06:35:10.774Z,42.96
2017-12-23T06:36:11.241Z,42.94
2017-12-23T06:37:23.695Z,42.91
2017-12-23T06:38:12.192Z,42.90
2017-12-23T06:39:12.664Z,42.88
2017-12-23T06:40:13.138Z,42.86
2017-12-23T06:41:13.603Z,42.82
2017-12-23T06:43:14.534Z,42.84
2017-12-23T06:45:15.488Z,42.83
2017-12-23T06:46:15.948Z,42.84
2017-12-23T06:49:17.374Z,42.81
2017-12-23T06:50:17.848Z,42.75
2017-12-23T06:53:19.248Z,42.70
2017-12-23T06:54:31.724Z,42.73
2017-12-23T06:55:20.191Z,42.72
2017-12-23T06:56:20.678Z,42.72
2017-12-23T06:57:21.133Z,42.69
2017-12-23T06:58:21.618Z,42.63
2017-12-23T06:59:22.141Z,42.54
2017-12-23T07:00:22.564Z,42.50
2017-12-23T07:01:23.034Z,42.49
2017-12-23T07:02:23.505Z,42.45
2017-12-23T07:03:23.978Z,42.42
2017-12-23T07:04:24.446Z,42.37
2017-12-23T07:05:24.903Z,42.33
2017-12-23T07:06:25.390Z,42.33
2017-12-23T07:08:26.333Z,42.28
2017-12-23T07:09:26.805Z,42.26
2017-12-23T07:10:27.275Z,42.22
2017-12-23T07:11:27.748Z,42.22
2017-12-23T07:12:28.207Z,42.19
2017-12-23T07:13:28.676Z,42.15
2017-12-23T07:14:29.148Z,42.11
2017-12-23T07:15:29.619Z,42.10
2017-12-23T07:16:30.104Z,42.10
2017-12-23T07:17:30.574Z,42.13
2017-12-23T07:18:31.034Z,42.15
2017-12-23T07:19:31.516Z,42.11
2017-12-23T07:20:31.992Z,42.08
2017-12-23T07:21:32.459Z,42.07
2017-12-23T07:22:32.918Z,42.07
2017-12-23T07:23:33.404Z,42.04
2017-12-23T07:24:33.874Z,42.03
2017-12-23T07:25:34.348Z,42.01
2017-12-23T07:26:34.818Z,41.99
2017-12-23T07:27:35.280Z,41.97
2017-12-23T07:28:35.760Z,41.97
2017-12-23T07:29:36.233Z,41.94
2017-12-23T07:30:36.704Z,41.93
2017-12-23T07:31:37.176Z,41.92
2017-12-23T07:32:37.647Z,41.97
2017-12-23T07:33:38.120Z,41.98
2017-12-23T07:34:38.639Z,42.02
2017-12-23T07:35:39.061Z,42.00
2017-12-23T07:37:40.003Z,42.00
2017-12-23T07:38:40.482Z,42.02
2017-12-23T07:39:40.948Z,42.01
2017-12-23T07:40:41.419Z,42.02
2017-12-23T07:41:41.877Z,42.02
2017-12-23T07:42:42.361Z,42.02
2017-12-23T07:43:42.820Z,41.98
2017-12-23T07:44:54.735Z,41.98
2017-12-23T07:45:43.782Z,41.99
2017-12-23T07:46:44.255Z,41.98
2017-12-23T07:47:44.722Z,41.96
2017-12-23T07:48:45.193Z,41.97
2017-12-23T07:50:46.122Z,41.96
2017-12-23T07:51:46.607Z,41.95
2017-12-23T07:52:47.079Z,41.94
2017-12-23T07:53:47.556Z,41.96
2017-12-23T07:54:48.022Z,41.94
2017-12-23T07:55:48.481Z,41.94
2017-12-23T07:56:48.967Z,41.94
2017-12-23T07:57:49.436Z,41.97
2017-12-23T07:59:50.432Z,41.93
2017-12-23T08:01:51.323Z,41.90
2017-12-23T08:02:51.797Z,41.87
2017-12-23T08:03:52.268Z,41.84
2017-12-23T08:04:52.740Z,41.80
2017-12-23T08:05:53.211Z,41.80
2017-12-23T08:06:53.684Z,41.80
2017-12-23T08:07:54.144Z,41.79
2017-12-23T08:08:54.630Z,41.81
2017-12-23T08:09:55.103Z,41.82
2017-12-23T08:11:56.044Z,41.78
2017-12-23T08:12:56.522Z,41.81
2017-12-23T08:13:56.985Z,41.83
2017-12-23T08:15:58.137Z,41.85
2017-12-23T08:16:58.392Z,41.83
2017-12-23T08:18:59.350Z,41.87
2017-12-23T08:19:59.824Z,41.89
2017-12-23T08:21:00.296Z,41.84
2017-12-23T08:22:00.766Z,41.85
2017-12-23T08:23:01.239Z,41.83
2017-12-23T08:24:01.700Z,41.84
2017-12-23T08:25:02.186Z,41.84
2017-12-23T08:26:02.706Z,41.83
2017-12-23T08:27:03.128Z,41.79
2017-12-23T08:30:04.547Z,41.68
2017-12-23T08:31:05.018Z,41.68
2017-12-23T08:32:05.479Z,41.63
2017-12-23T08:33:05.966Z,41.60
2017-12-23T08:34:06.437Z,41.53
2017-12-23T08:35:06.910Z,41.49
2017-12-23T08:37:07.855Z,41.41
2017-12-23T08:38:08.331Z,41.40
2017-12-23T08:39:08.803Z,41.35
2017-12-23T08:40:09.275Z,41.34
2017-12-23T08:41:09.748Z,41.34
2017-12-23T08:42:10.231Z,41.31
2017-12-23T08:43:10.682Z,41.30
2017-12-23T08:44:11.170Z,41.28
2017-12-23T08:45:11.643Z,41.27
2017-12-23T08:46:12.122Z,41.26
2017-12-23T08:47:12.588Z,41.25
2017-12-23T08:48:13.063Z,41.23
2017-12-23T08:49:13.524Z,41.23
2017-12-23T08:51:14.483Z,41.21
2017-12-23T08:53:15.420Z,41.18
2017-12-23T08:54:15.905Z,41.18
2017-12-23T08:55:16.380Z,41.15
2017-12-23T08:56:17.056Z,41.14
2017-12-23T08:57:17.328Z,41.12
2017-12-23T08:58:17.801Z,41.11
2017-12-23T09:01:19.276Z,41.13
2017-12-23T09:02:19.685Z,41.14
2017-12-23T09:03:20.180Z,41.12
2017-12-23T09:04:20.648Z,41.10
2017-12-23T09:05:21.121Z,41.09
2017-12-23T09:06:21.785Z,41.10
2017-12-23T09:07:22.074Z,41.09
2017-12-23T09:08:22.544Z,41.12
2017-12-23T09:09:23.020Z,41.10
2017-12-23T09:10:23.494Z,41.10
2017-12-23T09:11:23.956Z,41.11
2017-12-23T09:12:24.445Z,41.11
2017-12-23T09:13:24.923Z,41.09
2017-12-23T09:14:25.382Z,41.11
2017-12-23T09:15:25.872Z,41.10
2017-12-23T09:16:26.347Z,41.11
2017-12-23T09:17:26.820Z,41.10
2017-12-23T09:18:27.297Z,41.10
2017-12-23T09:19:27.804Z,41.09
2017-12-23T09:20:28.246Z,41.06
2017-12-23T09:21:28.712Z,41.06
2017-12-23T09:22:29.197Z,41.08
2017-12-23T09:23:29.671Z,41.10
2017-12-23T09:24:30.147Z,41.13
2017-12-23T09:25:30.624Z,41.12
2017-12-23T09:26:31.098Z,41.09
2017-12-23T09:27:31.580Z,41.12
2017-12-23T09:28:32.054Z,41.14
2017-12-23T09:29:32.525Z,41.15
2017-12-23T09:30:32.987Z,41.16
2017-12-23T09:31:33.527Z,41.15
2017-12-23T09:32:33.954Z,41.15
2017-12-23T09:33:34.431Z,41.13
2017-12-23T09:34:34.910Z,41.13
2017-12-23T09:35:35.366Z,41.12
2017-12-23T09:38:36.808Z,41.12
2017-12-23T09:39:37.285Z,41.14
2017-12-23T09:40:37.761Z,41.16
2017-12-23T09:41:38.235Z,41.15
2017-12-23T09:42:38.699Z,41.17
2017-12-23T09:43:39.188Z,41.18
2017-12-23T09:44:39.666Z,41.20
2017-12-23T09:45:40.145Z,41.20
2017-12-23T09:46:51.901Z,41.21
2017-12-23T09:47:41.093Z,41.22
2017-12-23T09:48:41.578Z,41.24
2017-12-23T09:50:42.525Z,41.25
2017-12-23T09:53:43.941Z,41.23
2017-12-23T09:55:44.907Z,41.23
2017-12-23T09:57:45.861Z,41.22
2017-12-23T09:58:46.338Z,41.23
2017-12-23T09:59:46.818Z,41.23
2017-12-23T10:00:47.278Z,41.21
2017-12-23T10:01:47.766Z,41.19
2017-12-23T10:02:48.242Z,41.18
2017-12-23T10:03:48.724Z,41.18
2017-12-23T10:04:49.188Z,41.17
2017-12-23T10:05:49.679Z,41.20
2017-12-23T10:06:50.157Z,41.24
2017-12-23T10:08:51.106Z,41.41
2017-12-23T10:09:51.582Z,41.52
2017-12-23T10:10:52.064Z,41.65
2017-12-23T10:11:52.536Z,41.80
2017-12-23T10:12:53.049Z,41.96
2017-12-23T10:13:53.488Z,42.14
2017-12-23T10:14:53.966Z,42.33
2017-12-23T10:17:55.392Z,42.94
2017-12-23T10:18:55.866Z,43.15
2017-12-23T10:19:56.328Z,43.38
2017-12-23T10:20:56.814Z,43.59
2017-12-23T10:21:57.299Z,43.84
2017-12-23T10:25:59.189Z,44.87
2017-12-23T10:26:59.648Z,45.09
2017-12-23T10:28:00.134Z,45.27
2017-12-23T10:29:00.629Z,45.45
2017-12-23T10:30:01.082Z,45.58
2017-12-23T10:31:01.555Z,45.67
2017-12-23T10:32:02.031Z,45.75
2017-12-23T10:33:02.498Z,45.80
2017-12-23T10:35:03.431Z,45.88
2017-12-23T10:37:04.390Z,45.87
2017-12-23T10:38:04.862Z,45.84
2017-12-23T10:39:05.321Z,45.81
2017-12-23T10:40:05.810Z,45.77
2017-12-23T10:41:06.269Z,45.70
2017-12-23T10:42:06.753Z,45.62
2017-12-23T10:43:07.226Z,45.56
2017-12-23T10:44:07.699Z,45.47
2017-12-23T10:45:08.175Z,45.37
2017-12-23T10:46:08.633Z,45.31
2017-12-23T10:48:09.590Z,45.16
2017-12-23T10:49:10.117Z,45.07
2017-12-23T10:50:10.541Z,44.97
2017-12-23T10:51:11.012Z,44.87
2017-12-23T10:52:11.486Z,44.79
2017-12-23T10:53:11.960Z,44.70
2017-12-23T10:54:12.484Z,44.61
2017-12-23T10:56:13.384Z,44.41
2017-12-23T10:58:14.330Z,44.21
2017-12-23T10:59:14.855Z,44.15
2017-12-23T11:00:15.277Z,44.10
2017-12-23T11:01:15.740Z,44.05
2017-12-23T11:02:16.229Z,43.99
2017-12-23T11:04:17.231Z,43.89
2017-12-23T11:05:17.652Z,43.84
2017-12-23T11:06:18.134Z,43.83
2017-12-23T11:07:18.602Z,43.79
2017-12-23T11:09:19.561Z,43.73
2017-12-23T11:10:20.031Z,43.72
2017-12-23T11:11:20.506Z,43.70
2017-12-23T11:12:20.981Z,43.65
2017-12-23T11:13:21.455Z,43.64
2017-12-23T11:14:21.920Z,43.65
2017-12-23T11:15:22.409Z,43.67
2017-12-23T11:16:22.891Z,43.65
2017-12-23T11:17:23.360Z,43.65
2017-12-23T11:18:23.839Z,43.63
2017-12-23T11:19:24.365Z,43.65
2017-12-23T11:20:24.790Z,43.63
2017-12-23T11:21:25.254Z,43.58
2017-12-23T11:22:25.744Z,43.57
2017-12-23T11:23:26.219Z,43.52
2017-12-23T11:25:27.169Z,43.44
2017-12-23T11:26:27.648Z,43.41
2017-12-23T11:27:28.128Z,43.41
2017-12-23T11:28:28.605Z,43.42
2017-12-23T11:29:40.959Z,43.42
2017-12-23T11:30:29.561Z,43.40
2017-12-23T11:31:30.023Z,43.44
2017-12-23T11:32:30.514Z,43.48
2017-12-23T11:33:30.991Z,43.58
2017-12-23T11:34:31.467Z,43.68
2017-12-23T11:35:31.943Z,43.82
2017-12-23T11:36:32.422Z,43.97
2017-12-23T11:37:32.898Z,44.13
2017-12-23T11:38:33.377Z,44.32
2017-12-23T11:39:33.901Z,44.52
2017-12-23T11:40:34.332Z,44.72
2017-12-23T11:41:34.837Z,44.91
2017-12-23T11:42:35.280Z,45.11
2017-12-23T11:43:35.756Z,45.32
2017-12-23T11:44:36.231Z,45.51
2017-12-23T11:45:36.708Z,45.68
2017-12-23T11:46:37.170Z,45.86
2017-12-23T11:47:37.658Z,46.06
2017-12-23T11:48:38.131Z,46.24
2017-12-23T11:49:38.661Z,46.47
2017-12-23T11:51:39.555Z,47.00
2017-12-23T11:52:40.031Z,47.24
2017-12-23T11:53:40.502Z,47.45
2017-12-23T11:54:40.963Z,47.65
2017-12-23T11:55:41.455Z,47.78
2017-12-23T11:56:41.926Z,47.89
2017-12-23T11:57:42.404Z,47.96
2017-12-23T11:58:42.875Z,48.02
2017-12-23T11:59:43.331Z,48.03
2017-12-23T12:00:43.818Z,48.03
2017-12-23T12:01:44.289Z,48.00
2017-12-23T12:02:44.762Z,47.96
2017-12-23T12:03:45.224Z,47.89
2017-12-23T12:04:45.761Z,47.82
2017-12-23T12:05:46.181Z,47.77
2017-12-23T12:06:46.643Z,47.71
2017-12-23T12:07:47.127Z,47.62
2017-12-23T12:08:47.598Z,47.55
2017-12-23T12:09:48.072Z,47.45
2017-12-23T12:11:49.019Z,47.26
2017-12-23T12:12:49.495Z,47.16
2017-12-23T12:13:49.969Z,47.07
2017-12-23T12:14:50.441Z,46.98
2017-12-23T12:15:50.904Z,46.86
2017-12-23T12:16:51.387Z,46.71
2017-12-23T12:17:51.866Z,46.55
2017-12-23T12:18:52.335Z,46.45
2017-12-23T12:19:52.862Z,46.32
2017-12-23T12:20:53.286Z,46.18
2017-12-23T12:21:53.758Z,46.08
2017-12-23T12:22:54.234Z,45.98
2017-12-23T12:23:54.693Z,45.87
2017-12-23T12:25:55.658Z,45.65
2017-12-23T12:26:56.130Z,45.56
2017-12-23T12:27:56.606Z,45.47
2017-12-23T12:28:57.081Z,45.42
2017-12-23T12:29:57.608Z,45.33
2017-12-23T12:30:58.030Z,45.26
2017-12-23T12:31:58.506Z,45.14
2017-12-23T12:32:58.970Z,45.03
2017-12-23T12:33:59.458Z,44.94
2017-12-23T12:34:59.970Z,44.83
2017-12-23T12:36:00.409Z,44.76
2017-12-23T12:38:01.362Z,44.63
2017-12-23T12:39:01.837Z,44.57
2017-12-23T12:40:02.311Z,44.49
2017-12-23T12:41:02.777Z,44.43
2017-12-23T12:42:03.264Z,44.34
2017-12-23T12:44:04.217Z,44.22
2017-12-23T12:45:04.693Z,44.11
2017-12-23T12:47:05.637Z,44.02
2017-12-23T12:49:06.602Z,43.96
2017-12-23T12:50:07.080Z,43.96
2017-12-23T12:53:08.499Z,44.13
2017-12-23T12:54:08.987Z,44.23
2017-12-23T12:55:09.466Z,44.34
2017-12-23T12:56:09.941Z,44.48
2017-12-23T12:57:10.406Z,44.65
2017-12-23T12:58:10.896Z,44.81
2017-12-23T12:59:11.358Z,44.97
2017-12-23T13:00:11.846Z,45.15
2017-12-23T13:01:12.324Z,45.33
2017-12-23T13:02:12.800Z,45.51
2017-12-23T13:03:13.274Z,45.71
2017-12-23T13:04:13.749Z,45.88
2017-12-23T13:05:14.226Z,46.06
2017-12-23T13:06:14.700Z,46.23
2017-12-23T13:07:15.175Z,46.39
2017-12-23T13:08:15.649Z,46.60
2017-12-23T13:09:16.109Z,46.84
2017-12-23T13:10:16.598Z,47.10
2017-12-23T13:11:17.073Z,47.37
2017-12-23T13:13:18.019Z,47.81
2017-12-23T13:15:19.019Z,48.17
2017-12-23T13:16:19.426Z,48.33
2017-12-23T13:17:19.912Z,48.44
2017-12-23T13:19:20.857Z,48.59
2017-12-23T13:20:21.315Z,48.63
2017-12-23T13:21:21.802Z,48.61
2017-12-23T13:22:22.275Z,48.57
2017-12-23T13:24:23.220Z,48.48
2017-12-23T13:25:23.742Z,48.41
2017-12-23T13:26:24.166Z,48.31
2017-12-23T13:27:24.624Z,48.20
2017-12-23T13:28:25.097Z,48.11
2017-12-23T13:31:26.582Z,47.67
2017-12-23T13:32:27.001Z,47.48
2017-12-23T13:34:27.950Z,47.17
2017-12-23T13:35:28.423Z,47.03
2017-12-23T13:36:41.087Z,46.86
2017-12-23T13:37:29.368Z,46.68
2017-12-23T13:38:29.846Z,46.52
2017-12-23T13:40:30.780Z,46.18
2017-12-23T13:41:31.312Z,46.03
2017-12-23T13:42:31.735Z,45.91
2017-12-23T13:43:32.212Z,45.79
2017-12-23T13:44:32.682Z,45.65
2017-12-23T13:45:33.158Z,45.49
2017-12-23T13:46:33.630Z,45.36
2017-12-23T13:47:34.107Z,45.23
2017-12-23T13:48:34.580Z,45.09
2017-12-23T13:49:35.044Z,44.94
2017-12-23T13:52:36.481Z,44.62
2017-12-23T13:53:36.955Z,44.55
2017-12-23T13:54:37.430Z,44.44
2017-12-23T13:55:37.908Z,44.37
2017-12-23T13:56:38.380Z,44.26
2017-12-23T13:57:38.843Z,44.17
2017-12-23T13:58:39.331Z,44.10
2017-12-23T13:59:39.808Z,44.05
2017-12-23T14:00:40.271Z,44.00
2017-12-23T14:01:40.757Z,43.92
2017-12-23T14:02:41.236Z,43.86
2017-12-23T14:03:41.696Z,43.79
2017-12-23T14:04:42.187Z,43.75
2017-12-23T14:05:42.662Z,43.68
2017-12-23T14:07:43.667Z,43.55
2017-12-23T14:08:44.090Z,43.50
2017-12-23T14:09:44.566Z,43.45
2017-12-23T14:10:45.044Z,43.41
2017-12-23T14:11:45.520Z,43.42
2017-12-23T14:13:46.459Z,43.44
2017-12-23T14:14:46.949Z,43.50
2017-12-23T14:15:47.425Z,43.59
2017-12-23T14:16:47.901Z,43.72
2017-12-23T14:17:48.428Z,43.87
2017-12-23T14:18:48.849Z,44.04
2017-12-23T14:19:49.332Z,44.23
2017-12-23T14:20:49.794Z,44.41
2017-12-23T14:21:50.280Z,44.60
2017-12-23T14:22:50.806Z,44.81
2017-12-23T14:23:51.217Z,45.01
2017-12-23T14:24:51.694Z,45.22
2017-12-23T14:25:52.167Z,45.41
2017-12-23T14:26:52.642Z,45.62
2017-12-23T14:27:53.116Z,45.83
2017-12-23T14:28:53.588Z,46.03
2017-12-23T14:29:54.064Z,46.27